DLH696 EDDF-EPGD
Flight info
| Callsign | DLH696 |
|---|---|
| Flight time | N/A |
| Altitude | 31000 |
| Route | TOBAK3W/25C TOBAK N858 FEDZA/N0441F370 Y172 MAG DCT BODLA DCT VAVUN L730 KOSEX |
| Aircraft | A319/M-SDE3FGHIRWY/LB1 |
Departure
| Time | 2026-05-06 13:52 |
|---|---|
| Airport | Frankfurt Main Airport (EDDF) |
Arrival
| Time | N/A |
|---|---|
| Airport | Gdańsk Lech Wałęsa Airport (EPGD) |
| Time | Latitude | Longitude | Altitude | Speed | Heading |
|---|---|---|---|---|---|
| 2026-05-06 13:23 | 50.04414 | 8.56277 | 356 ft | 0 kts | 162° |
| 2026-05-06 13:23 | 50.04415 | 8.56276 | 356 ft | 0 kts | 162° |
| 2026-05-06 13:39 | 50.04421 | 8.56273 | 356 ft | 4 kts | 162° |
| 2026-05-06 13:40 | 50.04455 | 8.56256 | 359 ft | 4 kts | 166° |
| 2026-05-06 13:40 | 50.04471 | 8.56250 | 363 ft | 4 kts | 182° |
| 2026-05-06 13:40 | 50.04488 | 8.56265 | 359 ft | 3 kts | 249° |
| 2026-05-06 13:40 | 50.04484 | 8.56248 | 358 ft | 4 kts | 249° |
| 2026-05-06 13:41 | 50.04475 | 8.56209 | 360 ft | 4 kts | 250° |
| 2026-05-06 13:41 | 50.04465 | 8.56169 | 358 ft | 4 kts | 250° |
| 2026-05-06 13:41 | 50.04456 | 8.56130 | 361 ft | 4 kts | 250° |
| 2026-05-06 13:41 | 50.04453 | 8.56117 | 358 ft | 0 kts | 250° |
| 2026-05-06 13:43 | 50.04453 | 8.56116 | 358 ft | 1 kts | 250° |
| 2026-05-06 13:43 | 50.04448 | 8.56097 | 359 ft | 3 kts | 249° |
| 2026-05-06 13:43 | 50.04436 | 8.56053 | 360 ft | 6 kts | 238° |
| 2026-05-06 13:44 | 50.04386 | 8.56032 | 356 ft | 10 kts | 171° |
| 2026-05-06 13:44 | 50.04305 | 8.56081 | 360 ft | 14 kts | 147° |
| 2026-05-06 13:44 | 50.04270 | 8.56221 | 364 ft | 16 kts | 148° |
| 2026-05-06 13:44 | 50.04169 | 8.56281 | 356 ft | 13 kts | 160° |
| 2026-05-06 13:45 | 50.04158 | 8.56405 | 357 ft | 14 kts | 70° |
| 2026-05-06 13:45 | 50.04231 | 8.56713 | 360 ft | 16 kts | 70° |
| 2026-05-06 13:45 | 50.04269 | 8.56873 | 360 ft | 16 kts | 70° |
| 2026-05-06 13:46 | 50.04311 | 8.57050 | 361 ft | 18 kts | 69° |
| 2026-05-06 13:46 | 50.04357 | 8.57239 | 366 ft | 20 kts | 70° |
| 2026-05-06 13:46 | 50.04405 | 8.57446 | 363 ft | 19 kts | 69° |
| 2026-05-06 13:46 | 50.04425 | 8.57601 | 364 ft | 8 kts | 103° |
| 2026-05-06 13:47 | 50.04418 | 8.57622 | 365 ft | 2 kts | 121° |
| 2026-05-06 13:47 | 50.04398 | 8.57648 | 365 ft | 5 kts | 149° |
| 2026-05-06 13:47 | 50.04378 | 8.57661 | 366 ft | 0 kts | 158° |
| 2026-05-06 13:48 | 50.04377 | 8.57661 | 366 ft | 1 kts | 158° |
| 2026-05-06 13:48 | 50.04350 | 8.57678 | 364 ft | 9 kts | 159° |
| 2026-05-06 13:48 | 50.04285 | 8.57706 | 362 ft | 10 kts | 210° |
| 2026-05-06 13:49 | 50.04266 | 8.57661 | 362 ft | 0 kts | 248° |
| 2026-05-06 13:50 | 50.04266 | 8.57658 | 362 ft | 0 kts | 250° |
| 2026-05-06 13:51 | 50.04265 | 8.57655 | 362 ft | 2 kts | 250° |
| 2026-05-06 13:51 | 50.04201 | 8.57394 | 366 ft | 63 kts | 250° |
| 2026-05-06 13:52 | 50.03962 | 8.56391 | 357 ft | 132 kts | 250° |
| 2026-05-06 13:52 | 50.03607 | 8.54899 | 732 ft | 151 kts | 249° |
| 2026-05-06 13:52 | 50.03238 | 8.53368 | 1513 ft | 151 kts | 248° |
| 2026-05-06 13:52 | 50.02867 | 8.51833 | 2277 ft | 151 kts | 249° |
| 2026-05-06 13:53 | 50.02438 | 8.50345 | 2983 ft | 151 kts | 237° |
| 2026-05-06 13:53 | 50.01724 | 8.49084 | 3507 ft | 165 kts | 220° |
| 2026-05-06 13:53 | 50.00643 | 8.48180 | 3878 ft | 190 kts | 199° |
| 2026-05-06 13:53 | 49.99273 | 8.47810 | 4454 ft | 204 kts | 190° |
| 2026-05-06 13:54 | 49.97861 | 8.47501 | 5317 ft | 206 kts | 190° |
| 2026-05-06 13:54 | 49.96439 | 8.47181 | 6185 ft | 207 kts | 191° |
| 2026-05-06 13:54 | 49.95029 | 8.46610 | 6764 ft | 223 kts | 198° |
| 2026-05-06 13:54 | 49.93475 | 8.45892 | 7343 ft | 240 kts | 198° |
| 2026-05-06 13:55 | 49.91956 | 8.44790 | 8159 ft | 245 kts | 219° |
| 2026-05-06 13:55 | 49.90910 | 8.42695 | 9066 ft | 250 kts | 246° |
| 2026-05-06 13:55 | 49.90627 | 8.40016 | 9941 ft | 258 kts | 275° |
| 2026-05-06 13:55 | 49.91259 | 8.37386 | 10768 ft | 268 kts | 304° |
| 2026-05-06 13:56 | 49.92706 | 8.35534 | 11621 ft | 278 kts | 332° |
| 2026-05-06 13:56 | 49.94527 | 8.34295 | 12138 ft | 297 kts | 335° |
| 2026-05-06 13:56 | 49.96513 | 8.33008 | 12441 ft | 322 kts | 335° |
| 2026-05-06 13:56 | 49.98655 | 8.31642 | 12742 ft | 342 kts | 335° |
| 2026-05-06 13:57 | 50.00837 | 8.30250 | 12813 ft | 345 kts | 335° |
| 2026-05-06 13:57 | 50.03161 | 8.29111 | 13551 ft | 353 kts | 347° |
| 2026-05-06 13:57 | 50.05620 | 8.28816 | 14332 ft | 359 kts | 1° |
| 2026-05-06 13:57 | 50.08093 | 8.29470 | 15048 ft | 365 kts | 16° |
| 2026-05-06 13:58 | 50.10518 | 8.30744 | 15764 ft | 369 kts | 18° |
| 2026-05-06 13:58 | 50.12965 | 8.32041 | 16478 ft | 373 kts | 18° |
| 2026-05-06 13:58 | 50.15442 | 8.33343 | 17147 ft | 379 kts | 18° |
| 2026-05-06 13:58 | 50.17955 | 8.34660 | 17836 ft | 383 kts | 18° |
| 2026-05-06 13:59 | 50.20463 | 8.35972 | 18456 ft | 388 kts | 18° |
| 2026-05-06 13:59 | 50.23031 | 8.37319 | 19076 ft | 391 kts | 18° |
| 2026-05-06 13:59 | 50.25624 | 8.38684 | 19588 ft | 395 kts | 18° |
| 2026-05-06 13:59 | 50.28172 | 8.40286 | 19853 ft | 398 kts | 27° |
| 2026-05-06 14:00 | 50.30514 | 8.42604 | 20507 ft | 400 kts | 37° |
| 2026-05-06 14:00 | 50.32495 | 8.45670 | 21134 ft | 403 kts | 53° |
| 2026-05-06 14:00 | 50.34068 | 8.49311 | 21767 ft | 406 kts | 57° |
| 2026-05-06 14:00 | 50.35625 | 8.53054 | 22265 ft | 413 kts | 57° |